Time;durP1;ratioP1;P1;durP2;ratioP2;P2;SDS_P1;SDS_P2;PMS_P1;PMS_P2;Temp;Humidity;BMP_temperature;BMP_pressure;BME280_temperature;BME280_humidity;BME280_pressure;Samples;Min_cycle;Max_cycle;Signal;HPM_P1;HPM_P2
2024/02/15 00:01:01;;;;;;;12.95;7.80;;;8.90;99.90;;;-144.05;96.01;56982.66;5015586;28;20029;-83
2024/02/15 00:03:27;;;;;;;13.57;9.40;;;8.60;99.90;;;-144.05;96.49;56976.28;5014663;28;20038;-83
2024/02/15 00:05:53;;;;;;;13.00;8.25;;;;;;;-144.05;96.20;57027.25;5014056;28;20030;-82
2024/02/15 00:08:20;;;;;;;15.07;8.20;;;;;;;-144.05;96.59;57010.25;5013812;28;20061;-80
2024/02/15 00:10:47;;;;;;;13.00;8.20;;;;;;;-144.05;96.70;57012.38;5015138;28;20029;-81
2024/02/15 00:13:14;;;;;;;15.18;8.20;;;;;;;-144.05;96.42;56986.91;5013753;28;20026;-80
2024/02/15 00:15:41;;;;;;;11.77;7.45;;;8.70;99.90;;;-144.05;96.11;56997.50;5013784;28;20569;-81
2024/02/15 00:18:07;;;;;;;11.73;7.68;;;8.40;99.90;;;-144.05;96.43;56993.25;5014459;28;20057;-79
2024/02/15 00:20:36;;;;;;;12.25;7.50;;;14.60;99.90;;;-144.05;96.35;56986.91;5014007;28;20029;-80
2024/02/15 00:23:02;;;;;;;13.18;7.60;;;8.50;99.90;;;-144.05;95.71;56991.13;5013890;28;20030;-80
2024/02/15 00:25:28;;;;;;;14.75;7.63;;;8.30;99.90;;;-144.05;96.01;56993.25;5016033;28;20050;-81
2024/02/15 00:27:54;;;;;;;13.60;7.10;;;8.40;99.90;;;-144.05;95.73;57008.13;5013039;28;20402;-80
2024/02/15 00:30:19;;;;;;;10.23;6.90;;;9.20;99.90;;;-144.05;95.72;56989.00;5013004;28;20022;-80
2024/02/15 00:32:46;;;;;;;11.88;7.38;;;8.40;99.90;;;-144.05;95.55;57001.75;5012789;28;20026;-79
2024/02/15 00:35:13;;;;;;;9.77;6.60;;;;;;;-144.05;95.04;56989.00;5012958;28;20029;-79
2024/02/15 00:37:41;;;;;;;10.55;7.50;;;14.70;99.90;;;-144.05;95.66;57010.25;5012073;28;20452;-80
2024/02/15 00:40:08;;;;;;;16.25;7.97;;;8.20;99.90;;;-144.05;96.01;56999.63;5027292;28;20083;-80
2024/02/15 00:42:34;;;;;;;13.88;7.75;;;14.70;99.90;;;-144.05;95.93;56993.25;5012031;28;20021;-80
2024/02/15 00:45:01;;;;;;;13.15;8.10;;;;;;;-144.05;95.99;57023.00;5012058;28;20068;-80
2024/02/15 00:47:28;;;;;;;9.93;6.90;;;8.40;99.90;;;-144.05;96.18;57001.75;5011763;28;20112;-80
2024/02/15 00:49:54;;;;;;;13.88;7.60;;;;;;;-144.05;96.93;56989.00;5012409;28;20033;-79
2024/02/15 00:52:20;;;;;;;10.00;7.82;;;7.90;99.90;;;-144.05;96.87;57006.00;5011517;28;20030;-79
2024/02/15 00:54:47;;;;;;;9.75;7.90;;;9.30;99.90;;;-144.05;97.08;56984.78;5010410;28;20044;-78
2024/02/15 00:57:13;;;;;;;11.20;8.20;;;14.60;99.90;;;-144.05;97.08;56984.78;5011396;28;20168;-80
2024/02/15 00:59:39;;;;;;;14.05;8.77;;;7.80;99.90;;;-144.05;97.03;57027.25;5011586;28;20022;-80
2024/02/15 01:02:08;;;;;;;10.48;8.05;;;8.20;99.90;;;-144.05;97.13;57014.50;5014420;28;20040;-83
2024/02/15 01:04:35;;;;;;;12.07;8.23;;;8.20;99.90;;;-144.05;97.61;57003.88;5015132;28;20033;-83
2024/02/15 01:07:01;;;;;;;13.38;8.38;;;;;;;-144.05;97.99;56993.25;5029734;28;20033;-81
2024/02/15 01:09:27;;;;;;;13.20;8.95;;;8.20;99.90;;;-144.05;98.30;57006.00;5013487;28;20025;-83
2024/02/15 01:11:54;;;;;;;14.27;9.23;;;;;;;-144.05;98.24;57001.75;5013152;28;20045;-83
2024/02/15 01:14:20;;;;;;;15.63;8.90;;;;;;;-144.05;98.11;56991.13;5012402;28;20077;-79
2024/02/15 01:16:46;;;;;;;14.85;10.13;;;8.00;99.90;;;-144.05;97.81;56976.28;5012392;28;20435;-80
2024/02/15 01:19:12;;;;;;;15.05;9.88;;;8.80;99.90;;;-144.05;97.72;56993.25;5012096;28;20476;-79
2024/02/15 01:21:38;;;;;;;15.27;9.50;;;;;;;-144.05;97.65;56984.78;5017485;28;20040;-80
2024/02/15 01:24:06;;;;;;;16.40;9.77;;;8.50;99.90;;;-144.05;97.28;56989.00;5020762;28;20045;-79
2024/02/15 01:26:32;;;;;;;16.20;9.73;;;8.40;99.90;;;-144.05;97.17;57012.38;5016052;28;20034;-80
2024/02/15 01:28:59;;;;;;;17.65;10.05;;;;;;;-144.05;97.08;56982.66;5016727;28;20033;-80
2024/02/15 01:31:24;;;;;;;12.93;10.02;;;8.70;99.90;;;-144.05;96.90;56986.91;5011333;28;20115;-81
2024/02/15 01:33:50;;;;;;;14.68;9.95;;;8.90;99.90;;;-144.05;97.10;56993.25;5011621;28;20058;-79
2024/02/15 01:36:18;;;;;;;13.65;10.20;;;14.90;99.90;;;-144.05;97.07;56997.50;5011178;28;20184;-79
2024/02/15 01:38:45;;;;;;;15.32;9.38;;;11.80;99.90;;;-144.05;96.98;56972.03;5004506;28;20117;-79
2024/02/15 01:41:11;;;;;;;18.08;11.32;;;9.30;99.90;;;-144.05;97.19;57001.75;5014209;28;20406;-81
2024/02/15 01:43:37;;;;;;;16.02;10.23;;;8.40;99.90;;;-144.05;96.57;56982.66;5015009;28;20033;-79
2024/02/15 01:46:10;;;;;;;16.75;9.65;;;8.80;99.90;;;-144.05;96.82;56974.16;5030230;28;20034;-80
2024/02/15 01:48:40;;;;;;;13.10;9.90;;;9.00;99.90;;;-144.05;97.14;57014.50;5030022;28;20473;-78
2024/02/15 01:51:09;;;;;;;19.67;10.10;;;14.80;99.90;;;-144.05;96.54;57001.75;5013882;28;20044;-79
2024/02/15 01:53:37;;;;;;;18.35;10.60;;;8.30;99.90;;;-144.05;97.12;56986.91;5013393;28;20375;-81
2024/02/15 01:56:04;;;;;;;19.20;10.35;;;8.50;99.90;;;-144.05;97.08;57001.75;5014187;28;20029;-81
2024/02/15 01:58:31;;;;;;;16.48;11.30;;;14.40;99.90;;;-144.05;96.94;57006.00;5029571;28;20030;-81
2024/02/15 02:01:00;;;;;;;22.05;11.80;;;14.90;99.90;;;-144.05;97.13;57006.00;5014405;28;20060;-78
2024/02/15 02:03:26;;;;;;;21.58;10.90;;;9.30;99.90;;;-144.05;97.21;57010.25;5013685;28;20072;-79
2024/02/15 02:05:52;;;;;;;17.90;9.93;;;8.50;99.90;;;-144.05;96.05;56995.38;5015401;28;20101;-80
2024/02/15 02:08:19;;;;;;;17.42;11.48;;;;;;;-144.05;96.40;57014.50;5014596;28;20112;-79
2024/02/15 02:10:45;;;;;;;18.73;10.98;;;8.90;99.90;;;-144.05;96.39;57008.13;5014235;28;20045;-79
2024/02/15 02:13:12;;;;;;;16.17;10.60;;;;;;;-144.05;96.03;57001.75;5012901;28;20041;-79
2024/02/15 02:15:38;;;;;;;17.73;10.88;;;8.90;99.90;;;-144.05;96.64;57001.75;5013887;28;20037;-80
2024/02/15 02:18:09;;;;;;;22.27;11.93;;;8.40;99.90;;;-144.05;96.76;56997.50;5013033;28;20072;-79
2024/02/15 02:20:36;;;;;;;20.13;11.05;;;8.60;99.90;;;-144.05;96.88;56993.25;5014155;28;20030;-81
2024/02/15 02:23:18;;;;;;;19.27;10.95;;;9.00;99.90;;;-144.05;96.83;57018.75;5014005;28;20030;-80
2024/02/15 02:25:46;;;;;;;18.58;12.10;;;8.30;99.90;;;-144.05;96.65;57010.25;5019266;28;20430;-81
2024/02/15 02:28:13;;;;;;;22.10;11.65;;;8.90;99.90;;;-144.05;96.65;57003.88;5016636;28;20022;-82
2024/02/15 02:30:41;;;;;;;22.98;12.38;;;9.90;99.90;;;-144.05;96.47;56993.25;5015457;28;20022;-80
2024/02/15 02:33:18;;;;;;;18.83;10.73;;;11.60;99.90;;;-144.05;96.46;57010.25;5013802;28;20022;-81
2024/02/15 02:35:45;;;;;;;18.90;10.73;;;;;;;-144.05;96.69;56997.50;5013684;28;20029;-77
2024/02/15 02:38:12;;;;;;;18.83;10.55;;;;;;;-144.05;96.50;56989.00;5013734;28;20091;-81
2024/02/15 02:40:38;;;;;;;22.80;10.27;;;8.80;99.90;;;-144.05;96.27;57010.25;5013612;28;20037;-80
2024/02/15 02:43:04;;;;;;;20.42;10.38;;;;;;;-144.05;96.30;56982.66;5013658;28;20044;-79
2024/02/15 02:45:31;;;;;;;18.85;11.05;;;;;;;-144.05;96.56;56999.63;5013430;28;20026;-79
2024/02/15 02:47:59;;;;;;;20.15;10.50;;;8.90;99.90;;;-144.05;96.30;56986.91;5013949;28;20025;-80
2024/02/15 02:50:26;;;;;;;16.90;9.88;;;8.90;99.90;;;-144.05;96.72;56999.63;5011754;28;20116;-79
2024/02/15 02:52:53;;;;;;;19.92;11.18;;;;;;;-144.05;97.04;57003.88;5008924;28;20109;-81
2024/02/15 02:55:18;;;;;;;20.42;10.68;;;14.90;99.90;;;-144.05;96.33;56997.50;5010165;28;20033;-78
2024/02/15 02:57:44;;;;;;;22.23;10.50;;;8.30;99.90;;;-144.05;96.26;56997.50;5013227;28;20041;-79
2024/02/15 03:00:15;;;;;;;24.92;10.48;;;8.50;99.90;;;-144.05;96.04;57010.25;5012501;28;20033;-81
2024/02/15 03:02:43;;;;;;;16.20;9.02;;;8.60;99.90;;;-144.05;96.34;56995.38;5013403;28;20419;-81
2024/02/15 03:05:11;;;;;;;19.40;9.23;;;14.70;99.90;;;-144.05;95.58;56993.25;5013493;28;20038;-82
2024/02/15 03:07:37;;;;;;;14.68;10.00;;;8.40;99.90;;;-144.05;95.84;56984.78;5028256;28;20034;-80
2024/02/15 03:10:08;;;;;;;15.73;9.50;;;8.60;99.90;;;-144.05;95.63;56978.41;5013288;28;20092;-78
2024/02/15 03:12:36;;;;;;;16.40;8.25;;;8.20;99.90;;;-144.05;95.55;56982.66;5013277;28;20033;-81
2024/02/15 03:15:10;;;;;;;19.27;8.93;;;11.70;99.90;;;-144.05;95.92;56989.00;5013660;28;20495;-81
2024/02/15 03:17:45;;;;;;;14.95;9.07;;;;;;;-144.05;95.84;56976.28;5028295;28;20166;-82
2024/02/15 03:20:20;;;;;;;22.23;8.48;;;8.60;99.90;;;-144.05;95.42;56986.91;5012094;28;20030;-80
2024/02/15 03:22:59;;;;;;;15.02;7.55;;;8.50;99.90;;;-144.05;94.99;57006.00;5013514;28;20040;-81
2024/02/15 03:25:28;;;;;;;18.55;8.57;;;11.80;99.90;;;-144.05;94.86;56967.78;5016669;28;20037;-80
2024/02/15 03:27:58;;;;;;;15.65;7.80;;;11.80;99.90;;;-144.05;94.29;57016.63;5012106;28;20061;-81
2024/02/15 03:30:30;;;;;;;20.15;8.27;;;9.30;99.90;;;-144.05;94.32;57010.25;5011813;28;20052;-80
2024/02/15 03:33:00;;;;;;;18.08;7.50;;;8.80;99.90;;;-144.05;94.54;57006.00;5012861;28;20033;-80
2024/02/15 03:35:31;;;;;;;18.30;8.18;;;8.60;99.90;;;-144.05;94.49;57001.75;5027934;28;20125;-79
2024/02/15 03:37:58;;;;;;;15.60;8.25;;;9.40;99.90;;;-144.05;94.45;56984.78;5012884;28;20072;-82
2024/02/15 03:40:26;;;;;;;16.20;8.55;;;14.50;99.90;;;-144.05;93.35;57001.75;5013261;28;20446;-81
2024/02/15 03:42:53;;;;;;;14.95;9.02;;;;;;;-144.05;93.41;56993.25;5013297;28;20022;-81
2024/02/15 03:45:20;;;;;;;18.80;9.10;;;9.40;99.90;;;-144.05;93.68;56984.78;5013048;28;20058;-80
2024/02/15 03:47:46;;;;;;;19.17;10.23;;;9.00;99.90;;;-144.05;94.27;57001.75;5011903;28;20602;-81
2024/02/15 03:50:14;;;;;;;15.27;10.35;;;14.80;99.90;;;-144.05;94.21;56995.38;5028713;28;20045;-82
2024/02/15 03:52:41;;;;;;;19.15;11.02;;;8.70;99.90;;;-144.05;94.23;57016.63;5011747;28;20026;-81
2024/02/15 03:55:07;;;;;;;18.23;11.20;;;9.10;99.90;;;-144.05;94.33;56989.00;5012482;28;20029;-81
2024/02/15 03:57:33;;;;;;;17.60;10.20;;;8.60;99.90;;;-144.05;93.54;56980.53;5011806;28;20022;-81
2024/02/15 04:00:00;;;;;;;22.27;11.88;;;;;;;-144.05;93.23;57001.75;5013542;28;20117;-83
2024/02/15 04:02:27;;;;;;;17.30;10.35;;;;;;;-144.05;92.88;56991.13;5011070;28;20092;-82
2024/02/15 04:04:54;;;;;;;20.25;10.52;;;9.00;99.90;;;-144.05;93.20;57001.75;5013529;28;20072;-81
2024/02/15 04:07:22;;;;;;;19.98;10.73;;;8.40;99.90;;;-144.05;93.21;57003.88;5011296;28;20034;-81
2024/02/15 04:09:49;;;;;;;17.08;9.60;;;8.60;99.90;;;-144.05;93.19;56972.03;5013783;28;20038;-81
2024/02/15 04:12:16;;;;;;;22.23;10.35;;;;;;;-144.05;92.71;56984.78;5013109;28;20037;-80
2024/02/15 04:14:47;;;;;;;13.40;8.77;;;11.70;99.90;;;-144.05;92.86;56989.00;5011607;28;20022;-81
2024/02/15 04:17:16;;;;;;;17.83;9.15;;;;;;;-144.05;92.84;57012.38;5012763;28;20053;-81
2024/02/15 04:19:46;;;;;;;14.02;10.00;;;11.70;99.90;;;-144.05;93.17;56993.25;5011698;28;20033;-79
2024/02/15 04:22:15;;;;;;;15.98;9.02;;;8.90;99.90;;;-144.05;92.69;56982.66;5013480;28;20026;-80
2024/02/15 04:24:43;;;;;;;16.90;8.43;;;;;;;-144.05;92.28;57018.75;5016601;28;20026;-82
2024/02/15 04:27:11;;;;;;;17.52;7.82;;;9.30;99.90;;;-144.05;92.33;56984.78;5013784;28;20030;-82
2024/02/15 04:29:40;;;;;;;14.25;7.95;;;9.30;99.90;;;-144.05;92.33;57006.00;5013665;28;20034;-81
2024/02/15 04:32:11;;;;;;;15.68;7.70;;;8.40;99.90;;;-144.05;92.69;57012.38;5014299;28;20427;-81
2024/02/15 04:34:38;;;;;;;12.57;7.38;;;9.20;99.90;;;-144.05;92.54;56980.53;5030890;28;20053;-79
2024/02/15 04:37:07;;;;;;;15.10;6.80;;;9.60;99.90;;;-144.05;92.04;57008.13;5009891;28;20034;-81
2024/02/15 04:39:37;;;;;;;12.50;6.10;;;11.80;99.90;;;-144.05;92.01;56991.13;5010539;28;20034;-79
2024/02/15 04:42:09;;;;;;;17.52;6.70;;;14.80;99.90;;;-144.05;91.72;56991.13;5011866;28;20104;-81
2024/02/15 04:44:35;;;;;;;15.18;7.00;;;8.70;99.90;;;-144.05;91.74;56978.41;5011271;28;20022;-81
2024/02/15 04:47:05;;;;;;;15.18;6.50;;;11.80;99.90;;;-144.05;91.19;56989.00;5011127;28;20061;-79
2024/02/15 04:49:32;;;;;;;13.00;6.47;;;9.30;99.90;;;-144.05;90.88;56978.41;5011477;28;20029;-78
2024/02/15 04:52:01;;;;;;;15.30;6.90;;;;;;;-144.05;90.99;57010.25;5011432;28;20052;-80
2024/02/15 04:54:27;;;;;;;12.40;6.10;;;9.00;99.90;;;-144.05;91.03;56991.13;5010464;28;20056;-81
2024/02/15 04:56:54;;;;;;;15.98;6.75;;;9.70;99.90;;;-144.05;91.46;56986.91;5011141;28;20037;-80
2024/02/15 04:59:21;;;;;;;12.30;5.40;;;8.90;99.90;;;-144.05;91.90;57001.75;5011117;28;20026;-81
2024/02/15 05:01:49;;;;;;;11.02;4.82;;;14.20;99.90;;;-144.05;92.14;56984.78;5007263;28;20027;-80
2024/02/15 05:04:15;;;;;;;7.70;4.53;;;14.70;99.90;;;-144.05;92.11;56993.25;5012274;28;20061;-79
2024/02/15 05:06:41;;;;;;;9.15;4.88;;;9.60;99.90;;;-144.05;91.35;57001.75;5016720;28;20026;-77
2024/02/15 05:09:09;;;;;;;8.20;4.55;;;9.60;99.90;;;-144.05;91.07;57006.00;5013384;28;20100;-80
2024/02/15 05:11:41;;;;;;;11.20;4.20;;;9.20;99.90;;;-144.05;90.92;57001.75;5013270;28;20049;-79
2024/02/15 05:14:07;;;;;;;8.05;4.32;;;9.50;99.90;;;-144.05;90.70;56976.28;5031871;28;20025;-81
2024/02/15 05:16:34;;;;;;;8.02;3.90;;;8.70;99.90;;;-144.05;91.02;56995.38;5023989;28;20117;-81
2024/02/15 05:19:00;;;;;;;14.30;4.70;;;14.60;99.90;;;-144.05;90.97;56993.25;5018593;28;20029;-81
2024/02/15 05:21:26;;;;;;;10.68;3.70;;;8.60;99.90;;;-144.05;91.15;56999.63;5020396;28;20080;-80
2024/02/15 05:23:52;;;;;;;7.50;4.13;;;9.70;99.90;;;-144.05;91.03;57010.25;5020285;28;20018;-80
2024/02/15 05:26:23;;;;;;;8.90;3.78;;;9.50;99.90;;;-144.05;90.92;56993.25;5024488;28;20077;-79
2024/02/15 05:28:50;;;;;;;7.75;3.42;;;9.60;99.90;;;-144.05;90.61;56999.63;5019661;28;20747;-81
2024/02/15 05:31:21;;;;;;;8.48;3.30;;;9.50;99.90;;;-144.05;90.27;56993.25;5020244;28;20048;-78
2024/02/15 05:33:50;;;;;;;9.00;3.22;;;9.40;99.90;;;-144.05;90.50;57008.13;5020425;28;20040;-81
2024/02/15 05:36:20;;;;;;;11.75;3.55;;;11.80;99.90;;;-144.05;90.21;57040.00;5020827;28;20068;-79
2024/02/15 05:38:51;;;;;;;8.20;2.88;;;;;;;-144.05;90.24;57008.13;5034869;28;20030;-80
2024/02/15 05:41:17;;;;;;;6.20;2.47;;;9.30;99.90;;;-144.05;89.80;56993.25;5019684;28;20018;-80
2024/02/15 05:43:43;;;;;;;3.92;2.30;;;10.20;99.90;;;-144.05;89.63;56986.91;5020438;28;20056;-81
2024/02/15 05:46:10;;;;;;;7.03;2.50;;;9.30;99.90;;;-144.05;89.19;56989.00;5020541;28;20018;-84
2024/02/15 05:48:37;;;;;;;8.45;2.22;;;9.50;99.90;;;-144.05;89.26;56989.00;5019087;28;20021;-79
2024/02/15 05:51:08;;;;;;;5.00;2.17;;;8.90;99.90;;;-144.05;89.41;57016.63;5024339;28;20022;-81
2024/02/15 05:53:35;;;;;;;6.75;3.03;;;12.00;99.90;;;-144.05;89.66;56997.50;5031246;28;20022;-79
2024/02/15 05:56:14;;;;;;;6.35;2.38;;;8.70;99.90;;;-144.05;89.31;57006.00;5028531;28;20097;-82
2024/02/15 05:58:40;;;;;;;3.65;2.05;;;;;;;-144.05;89.56;56993.25;5022710;28;20080;-79
2024/02/15 06:01:06;;;;;;;14.05;2.75;;;14.40;99.90;;;-144.05;89.38;57006.00;5021741;28;20033;-81
2024/02/15 06:03:38;;;;;;;5.47;1.95;;;11.90;99.90;;;-144.05;89.33;57010.25;5021725;28;20018;-82
2024/02/15 06:06:07;;;;;;;7.13;2.50;;;14.80;99.90;;;-144.05;89.64;56997.50;5020268;28;20083;-83
2024/02/15 06:08:35;;;;;;;5.82;2.75;;;8.90;99.90;;;-144.05;89.69;57010.25;5019476;28;20046;-81
2024/02/15 06:11:04;;;;;;;7.85;2.25;;;9.60;99.90;;;-144.05;88.70;56991.13;5018616;28;20491;-81
2024/02/15 06:13:31;;;;;;;10.10;2.25;;;12.00;99.90;;;-144.05;88.74;57001.75;5017366;28;20026;-80
2024/02/15 06:15:58;;;;;;;5.13;2.17;;;8.50;99.90;;;-144.05;88.70;56991.13;5018340;28;20018;-82
2024/02/15 06:18:29;;;;;;;5.20;1.77;;;9.00;99.90;;;-144.05;88.98;56991.13;5017336;28;20089;-80
2024/02/15 06:20:59;;;;;;;4.25;1.80;;;9.00;99.90;;;-144.05;89.23;56991.13;5018760;28;20042;-79
2024/02/15 06:23:27;;;;;;;6.07;1.85;;;;;;;-144.05;88.38;56995.38;5018410;28;20344;-81
2024/02/15 06:25:57;;;;;;;6.13;2.60;;;9.40;99.90;;;-144.05;88.40;56976.28;5016464;28;20027;-82
2024/02/15 06:39:41;;;;;;;3.83;1.63;;;;;;;-144.05;88.19;56997.50;5016409;28;20033;-79
2024/02/15 06:42:19;;;;;;;8.05;1.52;;;9.00;99.90;;;-144.05;88.43;57008.13;5015522;28;20018;-79
2024/02/15 06:44:47;;;;;;;4.68;1.98;;;14.50;99.90;;;-144.05;88.20;57008.13;5014523;28;20033;-80
2024/02/15 06:47:17;;;;;;;4.88;1.70;;;9.50;99.90;;;-144.05;88.00;56978.41;5016584;28;20096;-81
2024/02/15 06:49:45;;;;;;;6.15;2.08;;;14.80;99.90;;;-144.05;88.60;56991.13;5015556;28;20037;-80
2024/02/15 06:52:12;;;;;;;6.13;1.83;;;9.20;99.90;;;-144.05;88.73;56989.00;5016861;28;20030;-80
2024/02/15 06:54:41;;;;;;;7.00;1.95;;;12.00;99.90;;;-144.05;89.16;57012.38;5015255;28;20018;-77
2024/02/15 06:57:08;;;;;;;7.63;1.90;;;;;;;-144.05;88.95;57003.88;5030517;28;20434;-81
2024/02/15 06:59:34;;;;;;;8.15;2.50;;;;;;;-144.05;89.26;56995.38;5015652;28;20103;-81
2024/02/15 07:02:04;;;;;;;5.10;2.00;;;;;;;-144.05;89.10;56997.50;5015847;28;20026;-79
2024/02/15 07:04:32;;;;;;;7.57;2.17;;;9.40;99.90;;;-144.05;89.21;56999.63;5015607;28;20018;-78
2024/02/15 07:06:59;;;;;;;7.13;2.83;;;;;;;-144.05;89.52;57012.38;5015229;28;20502;-81
2024/02/15 07:09:25;;;;;;;7.55;2.05;;;15.00;99.90;;;-144.05;89.81;57003.88;5014990;28;20029;-79
2024/02/15 07:11:52;;;;;;;9.13;1.90;;;14.40;99.90;;;-144.05;90.29;57003.88;5016862;28;20033;-79
2024/02/15 07:14:19;;;;;;;10.23;2.17;;;;;;;-144.05;90.01;56989.00;5015504;28;20119;-81
2024/02/15 07:16:50;;;;;;;8.35;2.30;;;11.80;99.90;;;-144.05;90.09;56969.91;5017943;28;20045;-79
2024/02/15 07:19:18;;;;;;;6.63;2.00;;;9.00;99.90;;;-144.05;91.08;57010.25;5015707;28;20394;-80
2024/02/15 07:21:45;;;;;;;5.22;2.33;;;9.50;99.90;;;-144.05;90.88;57010.25;5016001;28;20348;-80
2024/02/15 07:24:12;;;;;;;6.78;2.53;;;;;;;-144.05;90.30;57018.75;5018421;28;20116;-81
2024/02/15 07:26:38;;;;;;;7.65;2.33;;;14.50;99.90;;;-144.05;91.19;56993.25;5015391;28;20068;-79
2024/02/15 07:29:05;;;;;;;12.18;2.85;;;15.00;99.90;;;-144.05;91.08;57006.00;5017030;28;20117;-81
2024/02/15 07:31:35;;;;;;;6.95;2.78;;;9.50;99.90;;;-144.05;91.65;57006.00;5014338;28;20026;-79
2024/02/15 07:34:03;;;;;;;7.95;2.63;;;;;;;-144.05;91.95;56999.63;5014282;28;20032;-80
2024/02/15 07:36:29;;;;;;;7.50;2.17;;;9.60;99.90;;;-144.05;92.44;57020.88;5013874;28;20091;-78
2024/02/15 07:39:00;;;;;;;10.77;2.40;;;14.90;99.90;;;-144.05;92.41;56989.00;5013596;28;20025;-79
2024/02/15 07:41:27;;;;;;;9.82;3.42;;;14.50;99.90;;;-144.05;92.39;57006.00;5014585;28;20022;-79
2024/02/15 07:43:55;;;;;;;10.93;2.50;;;;;;;-144.05;92.02;57010.25;5013785;28;20026;-79
2024/02/15 07:46:22;;;;;;;9.95;2.45;;;8.50;99.90;;;-144.05;92.77;56986.91;5012868;28;20410;-78
2024/02/15 07:48:50;;;;;;;8.52;2.47;;;;;;;-144.05;92.44;56989.00;5014682;28;20037;-79
2024/02/15 07:51:19;;;;;;;8.52;2.65;;;8.70;99.90;;;-144.05;92.85;57012.38;5014906;28;20026;-79
2024/02/15 07:53:46;;;;;;;8.13;3.00;;;9.40;99.90;;;-144.05;93.24;57035.75;5012993;28;20033;-78
2024/02/15 07:56:15;;;;;;;11.05;2.53;;;;;;;-144.05;92.41;57020.88;5014829;28;20435;-79
2024/02/15 07:58:50;;;;;;;8.00;2.70;;;14.60;99.90;;;-144.05;93.35;56972.03;5016647;28;20030;-79
2024/02/15 08:01:16;;;;;;;9.90;2.90;;;9.50;99.90;;;-144.05;92.82;56997.50;5031998;28;20032;-78
2024/02/15 08:03:44;;;;;;;10.75;3.03;;;9.00;99.90;;;-144.05;92.90;57001.75;5021337;28;20498;-81
2024/02/15 08:06:12;;;;;;;7.43;2.92;;;9.10;99.90;;;-144.05;93.27;57016.63;5014339;28;20026;-81
2024/02/15 08:08:48;;;;;;;6.72;2.63;;;8.60;99.90;;;-144.05;93.19;56997.50;5015641;28;20076;-82
2024/02/15 08:11:15;;;;;;;7.78;2.85;;;11.70;99.90;;;-144.05;93.02;56982.66;5014775;28;20026;-81
2024/02/15 08:13:50;;;;;;;11.27;3.95;;;14.30;99.90;;;-144.05;93.30;56997.50;5015445;28;20034;-80
2024/02/15 08:16:18;;;;;;;9.10;2.60;;;8.90;99.90;;;-144.05;93.33;56993.25;5015060;28;20101;-79
2024/02/15 08:18:46;;;;;;;6.95;2.47;;;;;;;-144.05;92.51;57018.75;5011550;28;20029;-80
2024/02/15 08:21:12;;;;;;;6.53;2.60;;;9.10;99.90;;;-144.05;92.34;57014.50;5013615;28;20503;-79
2024/02/15 08:23:38;;;;;;;10.70;2.40;;;8.90;99.90;;;-144.05;93.08;56999.63;5015285;28;20026;-77
2024/02/15 08:26:05;;;;;;;8.63;2.20;;;14.30;99.90;;;-144.05;92.78;57025.13;5018747;28;20033;-81
2024/02/15 08:28:31;;;;;;;6.20;1.90;;;8.70;99.90;;;-144.05;91.94;57025.13;5015205;28;20029;-79
2024/02/15 08:30:57;;;;;;;6.68;2.38;;;9.30;99.90;;;-144.05;91.71;57003.88;5014157;28;20014;-80
2024/02/15 08:33:24;;;;;;;9.32;2.40;;;9.20;99.90;;;-144.05;92.16;57040.00;5014199;28;20026;-79
2024/02/15 08:35:50;;;;;;;6.50;2.47;;;14.90;99.90;;;-144.05;91.78;57014.50;5014643;28;20034;-78
2024/02/15 08:38:17;;;;;;;5.32;2.05;;;14.70;99.90;;;-144.05;91.32;56993.25;5013749;28;20030;-78
2024/02/15 08:40:45;;;;;;;3.55;1.90;;;14.40;99.90;;;-144.05;91.10;56986.91;5013542;28;20021;-79
2024/02/15 08:43:11;;;;;;;8.25;2.22;;;;;;;-144.05;91.03;57014.50;5013944;28;20026;-80
2024/02/15 08:45:37;;;;;;;6.22;1.60;;;14.60;99.90;;;-144.05;91.02;57012.38;5013549;28;20080;-78
2024/02/15 08:48:04;;;;;;;6.53;1.83;;;9.50;99.90;;;-144.05;90.42;57012.38;5013568;28;20136;-79
2024/02/15 08:50:30;;;;;;;7.55;2.25;;;;;;;-144.05;89.90;57018.75;5013017;28;20113;-79
2024/02/15 08:52:57;;;;;;;7.53;1.92;;;;;;;-144.05;90.50;56976.28;5013087;28;20030;-79
2024/02/15 08:55:27;;;;;;;4.38;1.45;;;14.40;99.90;;;-144.05;90.29;56995.38;5014333;28;20025;-79
2024/02/15 08:57:54;;;;;;;6.60;1.48;;;8.80;99.90;;;-144.05;90.17;56986.91;5017287;28;20034;-79
2024/02/15 09:00:20;;;;;;;4.57;1.70;;;;;;;-144.05;90.43;57006.00;5019224;28;20037;-82
2024/02/15 09:02:48;;;;;;;7.70;1.85;;;12.30;99.90;;;-144.05;90.29;56993.25;5016257;28;20565;-79
2024/02/15 09:05:15;;;;;;;6.63;2.00;;;;;;;-144.05;90.33;56997.50;5015858;28;20033;-80
2024/02/15 09:07:42;;;;;;;4.85;1.73;;;;;;;-144.05;90.44;57012.38;5016563;28;20161;-80
2024/02/15 09:10:19;;;;;;;3.22;1.42;;;14.70;99.90;;;-144.05;91.12;56984.78;5014162;28;20080;-80
2024/02/15 09:12:48;;;;;;;6.40;1.85;;;;;;;-144.05;90.52;57016.63;5013867;28;20121;-80
2024/02/15 09:15:15;;;;;;;5.22;1.75;;;9.10;99.90;;;-144.05;90.52;56991.13;5014600;28;20514;-80
2024/02/15 09:17:45;;;;;;;7.35;1.73;;;;;;;-144.05;90.45;56989.00;5013831;28;20053;-81
2024/02/15 09:20:18;;;;;;;5.65;1.77;;;12.40;99.90;;;-144.05;90.16;56997.50;5014787;28;20026;-79
2024/02/15 09:22:49;;;;;;;4.13;1.80;;;;;;;-144.05;90.71;57001.75;5012649;28;20026;-79
2024/02/15 09:25:16;;;;;;;5.63;1.52;;;;;;;-144.05;90.75;57008.13;5017811;28;20030;-80
2024/02/15 09:27:43;;;;;;;5.63;1.40;;;;;;;-144.05;90.83;56999.63;5012975;28;20129;-80
2024/02/15 09:30:11;;;;;;;6.20;1.80;;;12.40;99.90;;;-144.05;90.83;56995.38;5011087;28;20033;-78
2024/02/15 09:32:39;;;;;;;6.07;1.52;;;;;;;-144.05;91.01;56997.50;5011984;28;20026;-80
2024/02/15 09:35:11;;;;;;;5.60;1.73;;;8.90;99.90;;;-144.05;91.38;56984.78;5013210;28;20033;-80
2024/02/15 09:37:43;;;;;;;5.55;1.95;;;14.90;99.90;;;-144.05;91.25;57008.13;5012036;28;20033;-77
2024/02/15 09:40:13;;;;;;;5.18;1.92;;;14.30;99.90;;;-144.05;91.07;56995.38;5013308;28;20025;-78
2024/02/15 09:42:39;;;;;;;5.97;2.72;;;9.50;99.90;;;-144.05;90.96;57006.00;5013437;28;20034;-80
2024/02/15 09:45:12;;;;;;;5.90;1.98;;;14.50;99.90;;;-144.05;91.38;56993.25;5017713;28;20029;-78
2024/02/15 09:47:42;;;;;;;6.30;1.77;;;9.20;99.90;;;-144.05;91.65;56984.78;5011298;28;20025;-78
2024/02/15 09:50:14;;;;;;;6.78;1.85;;;9.20;99.90;;;-144.05;90.75;57014.50;5014021;28;20022;-81
2024/02/15 09:52:44;;;;;;;7.43;1.98;;;;;;;-144.05;89.94;56989.00;5013965;28;20053;-79
2024/02/15 09:55:13;;;;;;;5.22;1.98;;;14.70;99.90;;;-144.05;89.63;57012.38;5014143;28;20026;-79
2024/02/15 09:57:42;;;;;;;5.13;1.70;;;9.90;99.90;;;-144.05;89.28;56972.03;5015327;28;20030;-79
2024/02/15 10:00:15;;;;;;;4.68;1.60;;;9.70;99.90;;;-144.05;89.54;56982.66;5012896;28;20403;-79
2024/02/15 10:02:48;;;;;;;8.90;2.08;;;10.10;99.90;;;-144.05;88.84;56982.66;5018616;28;20022;-80
2024/02/15 10:05:14;;;;;;;5.95;1.58;;;;;;;-144.05;88.07;56997.50;5017773;28;20344;-80
2024/02/15 10:07:45;;;;;;;3.80;2.08;;;12.90;99.90;;;-144.05;87.95;57008.13;5019789;28;20026;-80
2024/02/15 10:10:20;;;;;;;4.78;1.45;;;10.20;99.90;;;-144.05;87.15;56991.13;5027687;28;20438;-80
2024/02/15 10:12:51;;;;;;;6.68;1.73;;;13.00;99.90;;;-144.05;86.65;56976.28;5026800;28;20034;-80
2024/02/15 10:15:36;;;;;;;6.55;1.60;;;10.50;99.90;;;-144.05;86.25;56991.13;5028959;28;20025;-79
2024/02/15 10:18:10;;;;;;;6.05;1.58;;;14.70;99.90;;;-144.05;85.79;57006.00;5021743;28;20022;-78
2024/02/15 10:20:38;;;;;;;2.92;1.25;;;;;;;-144.05;85.06;56991.13;5023592;28;20049;-80
2024/02/15 10:23:19;;;;;;;5.78;1.50;;;10.70;99.90;;;-144.05;84.99;57006.00;5021420;28;20014;-79
2024/02/15 10:25:45;;;;;;;4.93;1.80;;;15.00;99.90;;;-144.05;83.91;57001.75;5043236;28;20040;-79
2024/02/15 10:28:15;;;;;;;8.85;2.33;;;14.40;99.90;;;-144.05;83.94;56997.50;5020689;28;20021;-79
2024/02/15 10:30:48;;;;;;;4.70;1.60;;;10.50;99.90;;;-144.05;83.32;57012.38;5018105;28;20018;-78
2024/02/15 10:33:31;;;;;;;4.80;1.20;;;15.10;99.90;;;-144.05;83.61;56972.03;5019003;28;20495;-80
2024/02/15 10:36:11;;;;;;;5.68;1.67;;;11.10;99.90;;;-144.05;83.34;57014.50;5033942;28;20471;-80